.
WxDataArchive / Data Records for 2009-10-15
2009-10-14 October 2009 2009-10-16

Data Records for Thursday, 15 October 2009

Time	Temp	Chill	HIndex	Humid	Dewpt	 Wind 	HiWind	WindDir	Rain 	Barom 
-----	----	-----	------	-----	-----	------	------	-------	-----	----- 
00:00	40.8	40.8	40.8	78	34.5	2	7	90	0.00	30.050 
00:05	40.9	40.9	40.9	78	34.6	1	7	90	0.00	30.050 
00:10	40.9	40.9	40.9	77	34.3	1	6	90	0.00	30.050 
00:15	40.9	40.9	40.9	77	34.3	2	7	112	0.00	30.055 
00:20	40.9	40.9	40.9	77	34.3	2	7	90	0.00	30.055 
00:25	40.9	40.9	40.9	77	34.3	1	4	90	0.00	30.055 
00:30	40.9	40.9	40.9	77	34.3	1	5	68	0.00	30.053 
00:35	40.9	40.9	40.9	77	34.3	1	4	112	0.00	30.053 
00:40	40.9	40.9	40.9	77	34.3	1	4	90	0.00	30.053 
00:45	40.9	40.9	40.9	77	34.3	1	5	90	0.00	30.042 
00:50	40.9	40.9	40.9	76	33.9	1	5	90	0.00	30.042 
00:55	40.9	40.9	40.9	76	33.9	1	3	112	0.00	30.042 
01:00	40.9	40.9	40.9	76	33.9	1	4	112	0.00	30.032 
01:05	40.9	40.9	40.9	75	33.6	1	5	90	0.00	30.032 
01:10	40.9	40.9	40.9	74	33.3	2	6	112	0.00	30.032 
01:15	40.9	40.9	40.9	74	33.3	2	7	90	0.00	30.025 
01:20	40.9	40.9	40.9	74	33.3	1	5	112	0.00	30.025 
01:25	40.9	40.9	40.9	73	32.9	2	9	112	0.00	30.025 
01:30	40.9	40.9	40.9	72	32.6	2	7	90	0.00	30.008 
01:35	40.9	40.9	40.9	71	32.2	3	9	90	0.00	30.008 
01:40	41.1	41.1	41.1	71	32.4	2	6	90	0.00	30.008 
01:45	41.1	41.1	41.1	70	32.1	2	6	90	0.00	30.007 
01:50	41.1	41.1	41.1	70	32.1	2	9	112	0.00	30.007 
01:55	41.1	41.1	41.1	70	32.1	2	6	90	0.00	30.007 
02:00	41.1	41.1	41.1	70	32.1	2	6	90	0.00	30.005 
02:05	41.2	41.2	41.2	70	32.2	1	4	90	0.00	30.005 
02:10	41.1	41.1	41.1	70	32.1	1	4	90	0.00	30.005 
02:15	41.1	41.1	41.1	70	32.1	1	4	90	0.00	30.002 
02:20	41.1	41.1	41.1	71	32.4	1	6	90	0.00	30.002 
02:25	41.2	41.2	41.2	71	32.5	2	5	112	0.00	30.002 
02:30	41.1	41.1	41.1	71	32.4	2	7	112	0.00	29.994 
02:35	41.2	41.2	41.2	71	32.5	2	9	90	0.00	29.994 
02:40	41.2	41.2	41.2	71	32.5	2	5	90	0.00	29.994 
02:45	41.2	41.2	41.2	71	32.5	1	4	112	0.00	29.992 
02:50	41.1	41.1	41.1	70	32.1	1	6	90	0.00	29.992 
02:55	41.2	41.2	41.2	71	32.5	2	10	112	0.00	29.992 
03:00	41.2	41.2	41.2	72	32.9	1	5	112	0.00	29.988 
03:05	41.2	41.2	41.2	72	32.9	2	6	112	0.00	29.988 
03:10	41.2	41.2	41.2	72	32.9	2	7	90	0.00	29.988 
03:15	41.1	41.1	41.1	73	33.1	1	4	90	0.00	29.974 
03:20	41.1	41.1	41.1	73	33.1	2	4	90	0.00	29.974 
03:25	41.1	41.1	41.1	73	33.1	2	7	90	0.00	29.974 
03:30	41.1	41.1	41.1	74	33.5	2	5	90	0.00	29.974 
03:35	40.9	40.9	40.9	75	33.6	1	4	90	0.00	29.974 
03:40	40.8	40.8	40.8	75	33.5	2	7	90	0.00	29.974 
03:45	40.6	40.6	40.6	76	33.6	1	4	90	0.00	29.962 
03:50	40.6	40.6	40.6	77	34.0	1	7	90	0.00	29.962 
03:55	40.5	40.5	40.5	77	33.9	2	8	90	0.00	29.962 
04:00	40.5	40.5	40.5	76	33.5	2	4	90	0.00	29.955 
04:05	40.5	40.5	40.5	76	33.5	2	6	90	0.00	29.955 
04:10	40.5	40.5	40.5	76	33.5	1	6	90	0.00	29.955 
04:15	40.5	40.5	40.5	76	33.5	1	4	68	0.00	29.953 
04:20	40.5	40.5	40.5	76	33.5	1	3	112	0.00	29.953 
04:25	40.5	40.5	40.5	76	33.5	2	6	90	0.00	29.953 
04:30	40.5	40.5	40.5	75	33.2	2	7	112	0.00	29.954 
04:35	40.5	40.5	40.5	75	33.2	2	6	90	0.00	29.954 
04:40	40.5	40.5	40.5	75	33.2	2	4	112	0.00	29.954 
04:45	40.5	40.5	40.5	76	33.5	2	5	112	0.00	29.948 
04:50	40.3	40.3	40.3	77	33.7	2	6	90	0.00	29.948 
04:55	40.3	40.3	40.3	78	34.0	2	6	112	0.00	29.948 
05:00	40.2	40.2	40.2	80	34.5	2	5	112	0.00	29.941 
05:05	40.1	40.1	40.1	81	34.7	1	3	68	0.00	29.941 
05:10	39.9	39.9	39.9	81	34.6	1	4	112	0.01	29.941 
05:15	39.9	39.9	39.9	82	34.9	1	5	90	0.00	29.945 
05:20	39.8	39.8	39.8	82	34.8	1	4	90	0.00	29.945 
05:25	39.6	39.6	39.6	83	34.9	1	3	90	0.00	29.945 
05:30	39.6	39.6	39.6	83	34.9	1	4	112	0.00	29.954 
05:35	39.6	39.6	39.6	84	35.2	1	3	90	0.00	29.954 
05:40	39.5	39.5	39.5	85	35.4	1	3	90	0.00	29.954 
05:45	39.5	39.5	39.5	85	35.4	1	4	90	0.00	29.960 
05:50	39.3	39.3	39.3	86	35.5	0	2	90	0.01	29.960 
05:55	39.2	39.2	39.2	86	35.4	1	5	112	0.00	29.960 
06:00	39.1	39.1	39.1	87	35.6	1	5	90	0.00	29.960 
06:05	39.1	39.1	39.1	87	35.6	1	4	90	0.01	29.960 
06:10	38.9	38.9	38.9	88	35.7	0	3	112	0.00	29.960 
06:15	38.8	38.8	38.8	88	35.6	1	9	112	0.00	29.961 
06:20	38.6	38.6	38.6	88	35.4	1	3	135	0.01	29.961 
06:25	38.6	38.6	38.6	88	35.4	1	4	45	0.00	29.961 
06:30	38.5	38.5	38.5	88	35.3	1	2	90	0.00	29.966 
06:35	38.3	38.3	38.3	89	35.3	1	3	90	0.01	29.966 
06:40	38.3	38.3	38.3	89	35.3	0	2	68	0.00	29.966 
06:45	38.2	38.2	38.2	89	35.2	1	3	135	0.00	29.971 
06:50	38.2	38.2	38.2	89	35.2	1	4	180	0.00	29.971 
06:55	38.2	38.2	38.2	89	35.2	1	3	112	0.01	29.971 
07:00	38.2	38.2	38.2	89	35.2	1	5	112	0.00	29.973 
07:05	38.2	38.2	38.2	90	35.5	1	5	90	0.00	29.973 
07:10	38.2	38.2	38.2	90	35.5	1	4	68	0.00	29.973 
07:15	38.0	38.0	38.0	90	35.3	2	9	90	0.00	29.978 
07:20	38.0	38.0	38.0	90	35.3	2	7	112	0.00	29.978 
07:25	38.0	38.0	38.0	90	35.3	2	6	112	0.01	29.978 
07:30	37.9	37.9	37.9	91	35.5	1	6	112	0.00	29.976 
07:35	37.9	37.9	37.9	91	35.5	1	4	90	0.01	29.976 
07:40	37.8	37.8	37.8	91	35.4	1	9	135	0.00	29.976 
07:45	37.6	37.6	37.6	91	35.2	2	5	90	0.00	29.975 
07:50	37.5	37.5	37.5	91	35.1	1	9	112	0.00	29.975 
07:55	37.2	37.2	37.2	91	34.8	2	5	112	0.01	29.975 
08:00	37.0	37.0	37.0	91	34.6	2	7	90	0.00	29.962 
08:05	36.9	36.9	36.9	91	34.5	2	7	90	0.00	29.962 
08:10	36.8	36.8	36.8	92	34.7	2	5	112	0.00	29.962 
08:15	36.6	36.6	36.6	92	34.5	2	5	90	0.01	29.960 
08:20	36.5	36.5	36.5	92	34.4	2	9	112	0.00	29.960 
08:25	36.3	36.3	36.3	92	34.2	2	6	112	0.00	29.960 
08:30	36.3	36.3	36.3	92	34.2	2	6	135	0.00	29.969 
08:35	36.3	36.3	36.3	92	34.2	1	4	112	0.00	29.969 
08:40	36.3	36.3	36.3	92	34.2	2	4	112	0.00	29.969 
08:45	36.3	36.3	36.3	92	34.2	1	5	112	0.00	29.967 
08:50	36.2	36.2	36.2	92	34.1	2	7	68	0.00	29.967 
08:55	36.0	36.0	36.0	92	33.9	2	5	45	0.00	29.967 
09:00	36.0	36.0	36.0	92	33.9	2	9	112	0.00	29.968 
09:05	35.9	35.9	35.9	92	33.8	2	7	112	0.00	29.968 
09:10	36.0	36.0	36.0	92	33.9	2	9	90	0.00	29.968 
09:15	36.0	36.0	36.0	93	34.2	2	4	112	0.01	29.971 
09:20	36.2	36.2	36.2	92	34.1	2	7	68	0.00	29.971 
09:25	36.2	36.2	36.2	93	34.4	2	5	90	0.00	29.971 
09:30	36.2	36.2	36.2	93	34.4	2	10	112	0.00	29.967 
09:35	36.3	36.3	36.3	93	34.5	2	7	68	0.00	29.967 
09:40	36.3	36.3	36.3	93	34.5	1	10	68	0.00	29.967 
09:45	36.5	36.5	36.5	93	34.7	2	9	90	0.00	29.962 
09:50	36.5	36.5	36.5	92	34.4	2	9	68	0.00	29.962 
09:55	36.6	36.6	36.6	92	34.5	2	7	90	0.00	29.962 
10:00	36.8	36.8	36.8	92	34.7	2	11	112	0.00	29.949 
10:05	36.8	36.8	36.8	92	34.7	3	7	90	0.00	29.949 
10:10	36.9	36.9	36.9	92	34.8	2	6	90	0.00	29.949 
10:15	36.9	36.9	36.9	92	34.8	2	6	90	0.00	29.960 
10:20	36.9	36.9	36.9	92	34.8	2	7	112	0.00	29.960 
10:25	36.9	36.9	36.9	92	34.8	2	7	112	0.00	29.960 
10:30	37.0	37.0	37.0	92	34.9	1	6	90	0.00	29.958 
10:35	37.0	37.0	37.0	92	34.9	2	6	90	0.00	29.958 
10:40	37.0	37.0	37.0	92	34.9	1	4	90	0.00	29.958 
10:45	37.2	37.2	37.2	92	35.1	1	5	45	0.00	29.946 
10:50	37.3	37.3	37.3	92	35.2	2	7	45	0.00	29.946 
10:55	37.3	37.3	37.3	92	35.2	2	5	135	0.00	29.946 
11:00	37.5	37.5	37.5	92	35.4	1	5	45	0.00	29.944 
11:05	37.6	37.6	37.6	92	35.5	2	5	112	0.00	29.944 
11:10	37.8	37.8	37.8	91	35.4	2	5	112	0.00	29.944 
11:15	37.8	37.8	37.8	91	35.4	1	5	112	0.00	29.950 
11:20	37.9	37.9	37.9	91	35.5	1	3	90	0.00	29.950 
11:25	38.0	38.0	38.0	91	35.6	1	4	90	0.00	29.950 
11:30	38.3	38.3	38.3	91	35.9	1	3	68	0.00	29.954 
11:35	38.3	38.3	38.3	91	35.9	2	4	90	0.00	29.954 
11:40	38.5	38.5	38.5	91	36.1	1	6	90	0.00	29.954 
11:45	38.6	38.6	38.6	91	36.2	1	4	90	0.00	29.929 
11:50	38.8	38.8	38.8	90	36.1	1	7	90	0.00	29.929 
11:55	38.9	38.9	38.9	90	36.2	1	4	90	0.00	29.929 
12:00	39.1	39.1	39.1	90	36.4	1	5	90	0.00	29.924 
12:05	39.3	39.3	39.3	90	36.6	2	6	112	0.00	29.924 
12:10	39.6	39.6	39.6	89	36.6	1	5	90	0.00	29.924 
12:15	39.8	39.8	39.8	88	36.5	2	7	112	0.00	29.928 
12:20	39.9	39.9	39.9	88	36.6	1	5	68	0.00	29.928 
12:25	40.2	40.2	40.2	87	36.6	2	5	90	0.00	29.928 
12:30	40.2	40.2	40.2	87	36.6	2	6	90	0.00	29.932 
12:35	40.3	40.3	40.3	86	36.5	2	6	90	0.00	29.932 
12:40	40.5	40.5	40.5	85	36.4	2	6	90	0.00	29.932 
12:45	40.6	40.6	40.6	85	36.4	2	7	90	0.00	29.926 
12:50	40.8	40.8	40.8	84	36.3	2	7	90	0.00	29.926 
12:55	41.1	41.1	41.1	84	36.6	1	4	112	0.00	29.926 
13:00	41.2	41.2	41.2	83	36.4	2	5	90	0.00	29.926 
13:05	41.3	41.3	41.3	82	36.2	2	6	90	0.00	29.926 
13:10	41.5	41.5	41.5	83	36.7	1	4	90	0.00	29.926 
13:15	41.8	41.8	41.8	82	36.7	2	7	112	0.00	29.922 
13:20	41.8	41.8	41.8	81	36.4	2	6	112	0.00	29.922 
13:25	41.9	41.9	41.9	81	36.5	2	4	90	0.00	29.922 
13:30	41.9	41.9	41.9	81	36.5	2	6	90	0.00	29.919 
13:35	42.1	42.1	42.1	80	36.4	2	7	112	0.00	29.919 
13:40	42.1	42.1	42.1	81	36.7	2	5	90	0.00	29.919 
13:45	42.2	42.2	42.2	81	36.8	2	5	90	0.00	29.912 
13:50	42.3	42.3	42.3	81	36.9	2	7	68	0.00	29.912 
13:55	42.3	42.3	42.3	80	36.6	1	5	112	0.00	29.912 
14:00	42.5	42.5	42.5	78	36.1	3	10	90	0.00	29.908 
14:05	42.5	42.5	42.5	78	36.1	3	9	112	0.00	29.908 
14:10	42.6	42.6	42.6	77	35.9	3	7	112	0.00	29.908 
14:15	42.6	42.6	42.6	78	36.2	2	5	90	0.00	29.903 
14:20	42.8	42.8	42.8	78	36.4	1	4	90	0.00	29.903 
14:25	42.8	42.8	42.8	77	36.1	2	6	90	0.00	29.903 
14:30	42.9	42.9	42.9	76	35.9	2	5	112	0.00	29.897 
14:35	43.1	43.1	43.1	76	36.1	1	5	90	0.00	29.897 
14:40	43.1	43.1	43.1	75	35.7	2	5	112	0.00	29.897 
14:45	43.2	43.2	43.2	75	35.8	2	5	90	0.00	29.897 
14:50	43.2	43.2	43.2	74	35.5	2	6	90	0.00	29.897 
14:55	43.2	43.2	43.2	75	35.8	1	5	90	0.00	29.897 
15:00	43.2	43.2	43.2	76	36.2	0	3	90	0.00	29.904 
15:05	43.2	43.2	43.2	75	35.8	1	3	90	0.00	29.904 
15:10	43.2	43.2	43.2	75	35.8	1	2	90	0.00	29.904 
15:15	43.3	43.3	43.3	76	36.3	0	2	90	0.00	29.895 
15:20	43.3	43.3	43.3	74	35.6	1	3	90	0.00	29.895 
15:25	43.5	43.5	43.5	75	36.1	1	4	90	0.00	29.895 
15:30	43.5	43.5	43.5	75	36.1	0	1	90	0.00	29.895 
15:35	43.6	43.6	43.6	74	35.9	1	5	90	0.00	29.895 
15:40	43.8	43.8	43.8	75	36.4	0	3	90	0.00	29.895 
15:45	43.8	43.8	43.8	73	35.7	1	4	45	0.00	29.895 
15:50	43.9	43.9	43.9	73	35.8	1	3	112	0.00	29.895 
15:55	44.1	44.1	44.1	73	36.0	1	3	68	0.00	29.895 
16:00	44.2	44.2	44.2	72	35.8	2	6	112	0.00	29.894 
16:05	44.2	44.2	44.2	70	35.0	2	5	112	0.00	29.894 
16:10	44.3	44.3	44.3	70	35.1	1	4	90	0.00	29.894 
16:15	44.3	44.3	44.3	70	35.1	1	6	90	0.00	29.894 
16:20	44.3	44.3	44.3	69	34.8	2	4	112	0.00	29.894 
16:25	44.3	44.3	44.3	70	35.1	1	5	90	0.00	29.894 
16:30	44.2	44.2	44.2	69	34.7	2	6	112	0.00	29.906 
16:35	44.1	44.1	44.1	69	34.6	2	4	90	0.00	29.906 
16:40	44.1	44.1	44.1	70	35.0	1	3	90	0.00	29.906 
16:45	43.9	43.9	43.9	70	34.8	1	5	112	0.00	29.910 
16:50	43.8	43.8	43.8	71	35.0	1	5	112	0.00	29.910 
16:55	43.6	43.6	43.6	70	34.5	2	7	90	0.00	29.910 
17:00	43.5	43.5	43.5	71	34.7	1	4	90	0.00	29.911 
17:05	43.3	43.3	43.3	72	34.9	1	5	112	0.00	29.911 
17:10	43.2	43.2	43.2	73	35.1	1	6	135	0.00	29.911 
17:15	42.9	42.9	42.9	73	34.9	2	6	90	0.00	29.916 
17:20	42.8	42.8	42.8	75	35.4	1	4	68	0.00	29.916 
17:25	42.6	42.6	42.6	76	35.6	1	6	90	0.00	29.916 
17:30	42.3	42.3	42.3	77	35.6	1	4	68	0.00	29.929 
17:35	42.1	42.1	42.1	78	35.7	2	7	45	0.00	29.929 
17:40	41.9	41.9	41.9	79	35.9	1	5	158	0.00	29.929 
17:45	41.8	41.8	41.8	80	36.1	1	5	112	0.00	29.930 
17:50	41.5	41.5	41.5	81	36.1	1	6	135	0.00	29.930 
17:55	41.3	41.3	41.3	83	36.5	0	3	270	0.00	29.930 
18:00	41.2	41.2	41.2	83	36.4	0	4	90	0.00	29.929 
18:05	41.1	41.1	41.1	84	36.6	1	4	135	0.00	29.929 
18:10	41.1	41.1	41.1	84	36.6	1	6	112	0.00	29.929 
18:15	40.8	40.8	40.8	84	36.3	1	7	90	0.00	29.935 
18:20	40.8	40.8	40.8	84	36.3	1	10	112	0.00	29.935 
18:25	40.6	40.6	40.6	84	36.2	0	3	180	0.00	29.935 
18:30	40.5	40.5	40.5	84	36.1	1	3	112	0.00	29.940 
18:35	40.3	40.3	40.3	84	35.9	2	8	135	0.00	29.940 
18:40	40.3	40.3	40.3	85	36.2	1	5	68	0.01	29.940 
18:45	40.1	40.1	40.1	84	35.7	2	10	68	0.00	29.940 
18:50	39.9	39.9	39.9	85	35.8	1	6	135	0.00	29.940 
18:55	39.8	39.8	39.8	85	35.7	1	4	112	0.00	29.940 
19:00	39.6	39.6	39.6	84	35.2	1	7	90	0.00	29.937 
19:05	39.5	39.5	39.5	83	34.8	1	5	45	0.00	29.937 
19:10	39.5	39.5	39.5	83	34.8	1	4	90	0.00	29.937 
19:15	39.5	39.5	39.5	84	35.1	0	3	45	0.00	29.947 
19:20	39.5	39.5	39.5	84	35.1	0	2	0	0.00	29.947 
19:25	39.3	39.3	39.3	84	34.9	0	2	270	0.00	29.947 
19:30	39.3	39.3	39.3	84	34.9	0	3	90	0.00	29.947 
19:35	39.3	39.3	39.3	85	35.2	0	3	90	0.00	29.947 
19:40	39.3	39.3	39.3	85	35.2	1	5	112	0.00	29.947 
19:45	39.2	39.2	39.2	84	34.8	1	5	112	0.00	29.949 
19:50	39.2	39.2	39.2	85	35.1	0	1	112	0.00	29.949 
19:55	39.2	39.2	39.2	85	35.1	0	2	112	0.00	29.949 
20:00	39.2	39.2	39.2	85	35.1	0	2	112	0.00	29.952 
20:05	39.2	39.2	39.2	86	35.4	0	1	112	0.00	29.952 
20:10	39.2	39.2	39.2	86	35.4	0	0	---	0.00	29.952 
20:15	39.3	39.3	39.3	86	35.5	0	0	---	0.00	29.959 
20:20	39.2	39.2	39.2	87	35.7	0	2	112	0.00	29.959 
20:25	39.2	39.2	39.2	87	35.7	0	2	112	0.00	29.959 
20:30	39.2	39.2	39.2	87	35.7	0	5	112	0.00	29.963 
20:35	39.1	39.1	39.1	86	35.3	0	3	135	0.00	29.963 
20:40	39.1	39.1	39.1	86	35.3	0	3	158	0.00	29.963 
20:45	38.9	38.9	38.9	86	35.1	0	3	0	0.00	29.967 
20:50	38.8	38.8	38.8	86	35.0	0	1	22	0.00	29.967 
20:55	38.8	38.8	38.8	86	35.0	0	2	112	0.00	29.967 
21:00	38.8	38.8	38.8	86	35.0	0	2	112	0.00	29.970 
21:05	38.6	38.6	38.6	87	35.1	1	7	135	0.00	29.970 
21:10	38.6	38.6	38.6	87	35.1	0	1	135	0.00	29.970 
21:15	38.6	38.6	38.6	87	35.1	0	3	135	0.00	29.962 
21:20	38.6	38.6	38.6	87	35.1	0	4	135	0.00	29.962 
21:25	38.6	38.6	38.6	87	35.1	1	5	135	0.00	29.962 
21:30	38.6	38.6	38.6	87	35.1	0	3	68	0.00	29.966 
21:35	38.5	38.5	38.5	87	35.0	0	2	202	0.00	29.966 
21:40	38.5	38.5	38.5	87	35.0	0	2	158	0.00	29.966 
21:45	38.5	38.5	38.5	88	35.3	0	1	158	0.00	29.976 
21:50	38.5	38.5	38.5	88	35.3	0	3	135	0.00	29.976 
21:55	38.5	38.5	38.5	88	35.3	1	3	135	0.00	29.976 
22:00	38.5	38.5	38.5	88	35.3	0	4	202	0.00	29.974 
22:05	38.3	38.3	38.3	88	35.1	1	3	68	0.00	29.974 
22:10	38.5	38.5	38.5	88	35.3	0	2	315	0.00	29.974 
22:15	38.3	38.3	38.3	88	35.1	0	4	135	0.00	29.970 
22:20	38.3	38.3	38.3	88	35.1	0	6	90	0.00	29.970 
22:25	38.3	38.3	38.3	89	35.3	0	2	135	0.00	29.970 
22:30	38.3	38.3	38.3	89	35.3	0	1	338	0.00	29.979 
22:35	38.3	38.3	38.3	89	35.3	0	2	338	0.00	29.979 
22:40	38.3	38.3	38.3	89	35.3	0	2	135	0.00	29.979 
22:45	38.5	38.5	38.5	89	35.5	0	1	90	0.00	29.975 
22:50	38.5	38.5	38.5	89	35.5	0	3	90	0.00	29.975 
22:55	38.5	38.5	38.5	89	35.5	1	6	112	0.00	29.975 
23:00	38.5	38.5	38.5	89	35.5	0	3	135	0.00	29.977 
23:05	38.5	38.5	38.5	89	35.5	0	1	135	0.00	29.977 
23:10	38.5	38.5	38.5	89	35.5	0	1	135	0.00	29.977 
23:15	38.5	38.5	38.5	89	35.5	0	2	135	0.00	29.978 
23:20	38.5	38.5	38.5	89	35.5	0	3	112	0.00	29.978 
23:25	38.5	38.5	38.5	89	35.5	0	1	112	0.00	29.978 
23:30	38.5	38.5	38.5	89	35.5	0	1	112	0.00	29.978 
23:35	38.5	38.5	38.5	89	35.5	0	1	112	0.00	29.978 
23:40	38.5	38.5	38.5	90	35.8	0	3	158	0.00	29.978 
23:45	38.5	38.5	38.5	90	35.8	0	3	158	0.00	29.975 
23:50	38.6	38.6	38.6	90	35.9	0	3	135	0.00	29.975 
23:55	38.6	38.6	38.6	90	35.9	0	0	---	0.00	29.975 

CoCoRaHS
IN-AL-39
A2 Web Hosting
Creative Commons License
GoDaddy
search engine by freefind advanced

loaded 2018-11-16 11:33:18 • last modified 2010-11-18 10:43:29
Privacy PolicyDisclaimer
• wx.awcolley.com is powered by PmWiki v.2002016 •
• all content (unless otherwise noted) © 2018 A W Colley